Time;durP1;ratioP1;P1;durP2;ratioP2;P2;SDS_P1;SDS_P2;PMS_P1;PMS_P2;Temp;Humidity;BMP_temperature;BMP_pressure;BME280_temperature;BME280_humidity;BME280_pressure;Samples;Min_cycle;Max_cycle;Signal;HPM_P1;HPM_P2
2024/01/02 00:00:36;;;;;;;1.77;0.68;;;8.70;99.90;;;8.60;100.00;99818.59;5241347;28;20045;-48
2024/01/02 00:03:09;;;;;;;2.40;0.50;;;8.70;99.90;;;8.61;100.00;99807.41;5233748;28;20045;-49
2024/01/02 00:05:42;;;;;;;4.65;0.85;;;8.70;99.90;;;8.63;100.00;99806.59;5244191;28;20427;-52
2024/01/02 00:08:15;;;;;;;3.40;0.65;;;8.70;99.90;;;8.64;100.00;99797.06;5240554;28;20048;-53
2024/01/02 00:10:48;;;;;;;1.75;0.52;;;8.70;99.90;;;8.61;100.00;99791.81;5241250;28;21628;-51
2024/01/02 00:13:20;;;;;;;4.80;0.85;;;8.70;99.90;;;8.57;100.00;99776.97;5225469;28;20499;-49
2024/01/02 00:15:53;;;;;;;7.60;0.70;;;8.70;99.90;;;8.56;100.00;99772.63;5234782;28;20097;-51
2024/01/02 00:18:25;;;;;;;4.18;0.70;;;8.70;99.90;;;8.52;100.00;99766.44;5241694;28;20043;-48
2024/01/02 00:20:57;;;;;;;3.40;0.90;;;8.70;99.90;;;8.48;100.00;99762.03;5232491;28;20044;-48
2024/01/02 00:23:31;;;;;;;2.88;0.80;;;8.60;99.90;;;8.47;100.00;99746.38;5240262;28;20671;-47
2024/01/02 00:26:04;;;;;;;3.35;0.60;;;8.60;99.90;;;8.45;100.00;99745.47;5239071;28;20071;-48
2024/01/02 00:28:36;;;;;;;5.13;1.10;;;8.60;99.90;;;8.41;100.00;99726.31;5241254;28;20048;-51
2024/01/02 00:31:09;;;;;;;0.52;0.38;;;8.60;99.90;;;8.37;100.00;99720.19;5231033;28;20052;-49
2024/01/02 00:33:41;;;;;;;0.93;0.45;;;8.50;99.90;;;8.40;100.00;99725.44;5241892;28;20059;-49
2024/01/02 00:36:14;;;;;;;1.52;0.55;;;8.60;99.90;;;8.43;100.00;99720.34;5238897;28;20045;-49
2024/01/02 00:38:48;;;;;;;1.38;0.50;;;8.60;99.90;;;8.47;100.00;99694.44;5233631;28;20056;-51
2024/01/02 00:41:20;;;;;;;4.47;0.73;;;8.60;99.90;;;8.47;100.00;99699.63;5232049;28;20032;-48
2024/01/02 00:43:53;;;;;;;1.73;0.68;;;8.60;99.90;;;8.47;100.00;99697.03;5238495;28;20071;-52
2024/01/02 00:46:25;;;;;;;1.75;0.45;;;8.60;99.90;;;8.47;100.00;99694.44;5250986;28;20049;-50
2024/01/02 00:48:58;;;;;;;6.32;1.02;;;8.60;99.90;;;8.50;100.00;99686.75;5227151;28;20059;-48
2024/01/02 00:51:31;;;;;;;12.15;1.67;;;8.60;99.90;;;8.50;100.00;99684.16;5235192;28;20492;-52
2024/01/02 00:54:05;;;;;;;9.63;1.80;;;8.60;99.90;;;8.49;100.00;99666.81;5240766;28;20076;-51
2024/01/02 00:56:38;;;;;;;8.10;2.50;;;8.60;99.90;;;8.45;100.00;99665.84;5236183;28;20139;-49
2024/01/02 00:59:13;;;;;;;4.53;2.25;;;8.60;99.90;;;8.43;100.00;99668.41;5237128;28;20059;-49
2024/01/02 01:01:45;;;;;;;4.00;1.77;;;8.60;99.90;;;8.43;100.00;99663.22;5236015;28;20048;-51
2024/01/02 01:04:18;;;;;;;4.75;2.13;;;8.60;99.90;;;8.44;100.00;99645.91;5251336;28;20048;-51
2024/01/02 01:06:51;;;;;;;6.32;2.30;;;8.60;99.90;;;8.48;100.00;99644.28;5238798;28;20048;-49
2024/01/02 01:09:25;;;;;;;4.25;1.77;;;8.60;99.90;;;8.51;100.00;99636.56;5234139;28;20076;-51
2024/01/02 01:11:58;;;;;;;2.53;1.25;;;8.60;99.90;;;8.50;100.00;99627.00;5235448;28;20047;-49
2024/01/02 01:14:30;;;;;;;3.22;1.10;;;8.60;99.90;;;8.56;100.00;99632.34;5247263;28;20048;-51
2024/01/02 01:17:06;;;;;;;2.83;0.73;;;8.60;99.90;;;8.56;100.00;99617.66;5238789;28;20051;-49
2024/01/02 01:19:38;;;;;;;0.75;0.73;;;8.60;99.90;;;8.58;100.00;99607.28;5244424;28;20562;-49
2024/01/02 01:22:10;;;;;;;2.50;0.60;;;8.60;99.90;;;8.59;100.00;99601.25;5235894;28;20103;-49
2024/01/02 01:24:43;;;;;;;1.90;0.68;;;8.70;99.90;;;8.56;100.00;99591.66;5248915;28;20147;-50
2024/01/02 01:27:16;;;;;;;2.83;0.60;;;8.60;99.90;;;8.55;100.00;99578.66;5241144;28;20048;-48
2024/01/02 01:29:48;;;;;;;1.48;0.40;;;8.60;99.90;;;8.55;100.00;99558.75;5232997;28;20055;-48
2024/01/02 01:32:20;;;;;;;1.95;0.85;;;8.60;99.90;;;8.55;100.00;99548.38;5236606;28;20094;-52
2024/01/02 01:34:53;;;;;;;0.43;0.32;;;8.70;99.90;;;8.56;100.00;99544.03;5251089;28;20056;-49
2024/01/02 01:37:25;;;;;;;0.32;0.30;;;8.70;99.90;;;8.56;100.00;99536.25;5243938;28;20522;-48
2024/01/02 01:40:00;;;;;;;0.55;0.55;;;8.60;99.90;;;8.58;100.00;99522.44;5242193;28;20041;-49
2024/01/02 01:42:32;;;;;;;0.20;0.20;;;8.70;99.90;;;8.61;100.00;99517.34;5241492;28;20107;-48
2024/01/02 01:45:06;;;;;;;0.45;0.30;;;8.70;99.90;;;8.65;100.00;99495.75;5240957;28;20049;-48
2024/01/02 01:47:38;;;;;;;1.00;0.50;;;8.70;99.90;;;8.69;100.00;99488.94;5243287;28;21262;-49
2024/01/02 01:50:11;;;;;;;0.95;0.30;;;8.70;99.90;;;8.70;100.00;99485.47;5244929;28;20040;-49
2024/01/02 01:52:45;;;;;;;0.55;0.30;;;8.80;99.90;;;8.69;100.00;99483.72;5255497;28;20071;-49
2024/01/02 01:55:19;;;;;;;0.15;0.15;;;8.80;99.90;;;8.65;100.00;99474.09;5247111;28;20045;-48
2024/01/02 01:57:53;;;;;;;0.50;0.20;;;8.70;99.90;;;8.67;100.00;99459.41;5243346;28;20048;-49
2024/01/02 02:00:27;;;;;;;0.20;0.20;;;8.70;99.90;;;8.67;100.00;99457.72;5242178;28;20039;-51
2024/01/02 02:03:01;;;;;;;0.95;0.30;;;8.80;99.90;;;8.70;100.00;99459.50;5242309;28;20052;-48
2024/01/02 02:05:36;;;;;;;1.85;0.30;;;8.80;99.90;;;8.65;100.00;99453.31;5239136;28;20573;-48
2024/01/02 02:08:10;;;;;;;0.20;0.20;;;8.80;99.90;;;8.66;100.00;99450.75;5238709;28;20052;-50
2024/01/02 02:10:44;;;;;;;2.17;0.50;;;8.70;99.90;;;8.63;100.00;99437.72;5246319;28;20404;-48
2024/01/02 02:13:17;;;;;;;0.40;0.38;;;8.70;99.90;;;8.64;100.00;99448.97;5246708;28;20048;-51
2024/01/02 02:15:49;;;;;;;1.80;0.40;;;8.70;99.90;;;8.65;100.00;99440.34;5244080;28;20052;-48
2024/01/02 02:18:22;;;;;;;0.30;0.30;;;8.70;99.90;;;8.66;100.00;99434.28;5242926;28;20048;-48
2024/01/02 02:20:55;;;;;;;0.95;0.65;;;8.70;99.90;;;8.64;100.00;99430.78;5251065;28;20647;-49
2024/01/02 02:23:29;;;;;;;3.42;0.30;;;8.70;99.90;;;8.63;100.00;99422.13;5251211;28;20051;-48
2024/01/02 02:26:01;;;;;;;0.65;0.30;;;8.70;99.90;;;8.61;100.00;99420.34;5237580;28;20068;-49
2024/01/02 02:28:34;;;;;;;0.80;0.40;;;8.70;99.90;;;8.60;100.00;99405.59;5242329;28;20086;-48
2024/01/02 02:31:06;;;;;;;1.08;0.25;;;8.70;99.90;;;8.54;100.00;99397.66;5248631;28;20050;-49
2024/01/02 02:33:38;;;;;;;0.47;0.20;;;8.70;99.90;;;8.54;100.00;99384.69;5242017;28;20064;-50
2024/01/02 02:36:12;;;;;;;0.50;0.50;;;8.60;99.90;;;8.51;100.00;99379.44;5242638;28;20124;-48
2024/01/02 02:38:45;;;;;;;0.30;0.20;;;8.60;99.90;;;8.47;100.00;99362.03;5244504;28;20048;-48
2024/01/02 02:41:18;;;;;;;0.10;0.10;;;8.60;99.90;;;8.43;100.00;99356.78;5250124;28;20503;-49
2024/01/02 02:43:50;;;;;;;0.20;0.20;;;8.60;99.90;;;8.43;100.00;99345.53;5234312;28;20048;-53
2024/01/02 02:46:23;;;;;;;1.52;0.20;;;8.60;99.90;;;8.39;100.00;99339.38;5242160;28;20049;-50
2024/01/02 02:48:55;;;;;;;0.25;0.22;;;8.50;99.90;;;8.37;100.00;99328.09;5241582;28;20045;-48
2024/01/02 02:51:27;;;;;;;0.30;0.20;;;8.50;99.90;;;8.37;100.00;99309.94;5241060;28;20512;-50
2024/01/02 02:54:02;;;;;;;0.32;0.30;;;8.50;99.90;;;8.36;100.00;99300.41;5236955;28;20138;-51
2024/01/02 02:56:34;;;;;;;2.72;0.60;;;8.50;99.90;;;8.29;100.00;99280.31;5233835;28;20049;-48
2024/01/02 02:59:07;;;;;;;0.60;0.60;;;8.40;99.90;;;8.26;100.00;99281.97;5236297;28;20404;-48
2024/01/02 03:01:39;;;;;;;0.35;0.25;;;8.40;99.90;;;8.24;100.00;99273.28;5255654;28;20516;-49
2024/01/02 03:04:12;;;;;;;1.20;0.30;;;8.40;99.90;;;8.27;100.00;99271.59;5244969;28;20053;-48
2024/01/02 03:06:44;;;;;;;0.93;0.20;;;8.40;99.90;;;8.27;100.00;99266.41;5234641;28;20052;-52
2024/01/02 03:09:18;;;;;;;0.28;0.28;;;8.40;99.90;;;8.29;100.00;99259.56;5240837;28;20041;-50
2024/01/02 03:11:50;;;;;;;0.30;0.30;;;8.40;99.90;;;8.28;100.00;99254.31;5234687;28;20040;-52
2024/01/02 03:14:22;;;;;;;3.03;0.28;;;8.30;99.90;;;8.25;100.00;99255.13;5246160;28;20131;-50
2024/01/02 03:16:55;;;;;;;0.10;0.10;;;8.30;99.90;;;8.27;100.00;99250.84;5242106;28;20059;-50
2024/01/02 03:19:27;;;;;;;0.20;0.20;;;8.30;99.90;;;8.23;100.00;99243.84;5238901;28;20049;-49
2024/01/02 03:22:00;;;;;;;1.30;0.60;;;8.30;99.90;;;8.22;100.00;99242.09;5240953;28;20399;-50
2024/01/02 03:24:33;;;;;;;0.13;0.13;;;8.30;99.90;;;8.14;100.00;99228.97;5238510;28;20045;-54
2024/01/02 03:27:06;;;;;;;0.40;0.28;;;8.30;99.90;;;8.16;100.00;99218.63;5239280;28;20141;-48
2024/01/02 03:29:38;;;;;;;0.22;0.22;;;8.30;99.90;;;8.17;100.00;99212.59;5247534;28;20084;-49
2024/01/02 03:32:10;;;;;;;2.20;0.70;;;8.30;99.90;;;8.16;100.00;99196.16;5232539;28;20597;-52
2024/01/02 03:34:43;;;;;;;0.65;0.10;;;8.30;99.90;;;8.15;100.00;99181.44;5252849;28;20058;-50
2024/01/02 03:37:15;;;;;;;0.40;0.25;;;8.30;99.90;;;8.09;100.00;99172.66;5239981;28;20135;-49
2024/01/02 03:39:50;;;;;;;0.90;0.70;;;8.30;99.90;;;8.05;100.00;99150.06;5235107;28;20487;-49
2024/01/02 03:42:22;;;;;;;0.10;0.10;;;8.20;99.90;;;8.01;100.00;99137.88;5242331;28;20044;-49
2024/01/02 03:44:54;;;;;;;1.45;0.50;;;8.20;99.90;;;7.97;100.00;99125.72;5241462;28;20435;-48
2024/01/02 03:47:27;;;;;;;0.30;0.20;;;8.20;99.90;;;7.95;100.00;99114.41;5239219;28;20135;-49
2024/01/02 03:49:59;;;;;;;0.88;0.88;;;8.20;99.90;;;7.89;100.00;99102.22;5238002;28;20041;-48
2024/01/02 03:52:32;;;;;;;0.20;0.20;;;8.10;99.90;;;7.94;100.00;99095.38;5238074;28;20063;-53
2024/01/02 03:55:07;;;;;;;0.28;0.20;;;8.10;99.90;;;7.95;100.00;99080.69;5240546;28;20076;-48
2024/01/02 03:57:39;;;;;;;0.30;0.30;;;8.10;99.90;;;7.94;100.00;99063.38;5245677;28;20083;-50
2024/01/02 04:00:12;;;;;;;0.20;0.20;;;8.20;99.90;;;7.95;100.00;99049.53;5242145;28;20143;-48
2024/01/02 04:02:45;;;;;;;0.10;0.10;;;8.10;99.90;;;7.93;100.00;99039.16;5241916;28;20532;-51
2024/01/02 04:05:18;;;;;;;1.55;0.25;;;8.10;99.90;;;7.95;100.00;99021.88;5241947;28;20521;-52
2024/01/02 04:07:50;;;;;;;0.70;0.40;;;8.20;99.90;;;7.98;100.00;99013.28;5236267;28;20136;-51
2024/01/02 04:10:24;;;;;;;0.10;0.10;;;8.10;99.90;;;7.99;100.00;99012.44;5241125;28;20094;-51
2024/01/02 04:12:56;;;;;;;0.10;0.10;;;8.20;99.90;;;8.00;100.00;99006.41;5237625;28;20529;-52
2024/01/02 04:15:29;;;;;;;0.10;0.10;;;8.20;99.90;;;8.00;100.00;98980.44;5238189;28;20067;-53
2024/01/02 04:18:01;;;;;;;0.10;0.10;;;8.20;99.90;;;7.98;100.00;98979.56;5236404;28;20048;-49
2024/01/02 04:20:33;;;;;;;0.30;0.30;;;8.20;99.90;;;8.00;100.00;98967.47;5240901;28;20048;-49
2024/01/02 04:23:07;;;;;;;2.70;0.32;;;8.20;99.90;;;8.03;100.00;98968.41;5237121;28;20053;-49
2024/01/02 04:25:40;;;;;;;0.38;0.38;;;8.20;99.90;;;8.06;100.00;98976.22;5243710;28;20449;-49
2024/01/02 04:28:13;;;;;;;0.20;0.20;;;8.20;99.90;;;8.10;100.00;98980.63;5240825;28;20052;-53
2024/01/02 04:30:45;;;;;;;1.17;0.25;;;8.30;99.90;;;8.12;100.00;98971.13;5238083;28;20063;-51
2024/01/02 04:33:18;;;;;;;0.50;0.20;;;8.30;99.90;;;8.19;100.00;98958.25;5242539;28;20060;-48
2024/01/02 04:35:50;;;;;;;0.10;0.10;;;8.30;99.90;;;8.21;100.00;98954.81;5224177;28;20044;-49
2024/01/02 04:38:22;;;;;;;2.45;0.55;;;8.30;99.90;;;8.26;100.00;98944.53;5236433;28;20415;-50
2024/01/02 04:40:57;;;;;;;0.20;0.20;;;8.40;99.90;;;8.29;100.00;98942.84;5240531;28;20044;-48
2024/01/02 04:43:29;;;;;;;0.20;0.20;;;8.40;99.90;;;8.33;100.00;98938.56;5236414;28;20060;-50
2024/01/02 04:46:03;;;;;;;0.10;0.10;;;8.40;99.90;;;8.35;100.00;98953.38;5240200;28;20048;-49
2024/01/02 04:48:35;;;;;;;0.22;0.20;;;8.40;99.90;;;8.36;100.00;98934.34;5238952;28;20044;-49
2024/01/02 04:51:07;;;;;;;0.20;0.20;;;8.50;99.90;;;8.37;100.00;98936.06;5240595;28;20053;-47
2024/01/02 04:53:40;;;;;;;2.17;0.30;;;8.50;99.90;;;8.39;100.00;98934.38;5240426;28;20052;-52
2024/01/02 04:56:14;;;;;;;0.10;0.10;;;8.50;99.90;;;8.41;100.00;98911.91;5236343;28;20059;-49
2024/01/02 04:58:46;;;;;;;0.40;0.40;;;8.50;99.90;;;8.43;100.00;98925.78;5247583;28;20528;-52
2024/01/02 05:01:18;;;;;;;0.10;0.10;;;8.50;99.90;;;8.45;100.00;98918.00;5236990;28;20137;-50
2024/01/02 05:03:51;;;;;;;0.17;0.17;;;8.60;99.90;;;8.49;100.00;98914.59;5236931;28;20052;-48
2024/01/02 05:06:24;;;;;;;0.22;0.20;;;8.50;99.90;;;8.50;100.00;98929.31;5238361;28;20056;-48
2024/01/02 05:08:56;;;;;;;0.22;0.22;;;8.60;99.90;;;8.51;100.00;98905.09;5242152;28;20054;-48
2024/01/02 05:11:36;;;;;;;0.65;0.20;;;8.60;99.90;;;8.54;100.00;98920.72;5236347;28;20052;-49
2024/01/02 05:14:09;;;;;;;0.20;0.20;;;8.60;99.90;;;8.53;100.00;98928.47;5235535;28;20052;-47
2024/01/02 05:16:41;;;;;;;0.10;0.10;;;8.60;99.90;;;8.53;100.00;98918.09;5241105;28;20045;-48
2024/01/02 05:19:14;;;;;;;0.43;0.30;;;8.60;99.90;;;8.56;100.00;98925.94;5239856;28;20551;-47
2024/01/02 05:21:47;;;;;;;0.10;0.10;;;8.60;99.90;;;8.56;100.00;98905.16;5241261;28;20047;-47
2024/01/02 05:24:19;;;;;;;0.32;0.32;;;8.60;99.90;;;8.57;100.00;98905.19;5238279;28;20537;-50
2024/01/02 05:26:53;;;;;;;0.10;0.10;;;8.70;99.90;;;8.60;100.00;98905.19;5237948;28;20053;-50
2024/01/02 05:29:25;;;;;;;0.10;0.10;;;8.70;99.90;;;8.62;100.00;98905.25;5237600;28;20056;-52
2024/01/02 05:31:58;;;;;;;0.13;0.13;;;8.70;99.90;;;8.65;100.00;98895.75;5240154;28;20434;-50
2024/01/02 05:34:30;;;;;;;0.10;0.10;;;8.80;99.90;;;8.70;100.00;98901.00;5241075;28;20060;-48
2024/01/02 05:37:02;;;;;;;0.10;0.10;;;8.80;99.90;;;8.74;100.00;98889.81;5240188;28;20048;-48
2024/01/02 05:39:35;;;;;;;0.10;0.10;;;8.80;99.90;;;8.76;100.00;98882.91;5237312;28;20053;-48
2024/01/02 05:42:09;;;;;;;0.20;0.20;;;8.80;99.90;;;8.79;100.00;98888.13;5240540;28;20044;-48
2024/01/02 05:44:41;;;;;;;0.47;0.40;;;8.80;99.90;;;8.81;100.00;98889.03;5240699;28;20441;-48
2024/01/02 05:47:13;;;;;;;0.20;0.20;;;8.90;99.90;;;8.84;100.00;98896.84;5238029;28;20048;-48
2024/01/02 05:49:46;;;;;;;0.20;0.20;;;8.90;99.90;;;8.86;100.00;98895.13;5241614;28;20048;-47
2024/01/02 05:52:18;;;;;;;0.10;0.10;;;8.90;99.90;;;8.90;100.00;98896.03;5237695;28;20055;-51
2024/01/02 05:54:51;;;;;;;0.15;0.13;;;8.90;99.90;;;8.92;100.00;98892.59;5256697;28;20086;-49
2024/01/02 05:57:24;;;;;;;0.63;0.30;;;9.00;99.90;;;8.95;100.00;98897.84;5237358;28;20056;-49
2024/01/02 05:59:57;;;;;;;0.10;0.10;;;9.00;99.90;;;8.97;100.00;98896.13;5243813;28;20044;-48
2024/01/02 06:02:29;;;;;;;0.13;0.13;;;9.00;99.90;;;9.02;100.00;98897.91;5231234;28;20048;-51
2024/01/02 06:05:02;;;;;;;0.17;0.17;;;9.00;99.90;;;9.09;100.00;98897.13;5234778;28;20049;-48
2024/01/02 06:07:34;;;;;;;0.65;0.20;;;9.10;99.90;;;9.13;100.00;98889.38;5238301;28;20516;-48
2024/01/02 06:10:08;;;;;;;0.55;0.10;;;9.10;99.90;;;9.20;100.00;98892.91;5239147;28;20048;-50
2024/01/02 06:12:42;;;;;;;0.13;0.13;;;9.20;99.90;;;9.29;100.00;98893.00;5233909;28;20048;-52
2024/01/02 06:15:15;;;;;;;0.20;0.20;;;9.20;99.90;;;9.37;100.00;98887.84;5236198;28;20057;-48
2024/01/02 06:17:48;;;;;;;0.20;0.20;;;9.30;99.90;;;9.45;100.00;98894.00;5239868;28;20533;-48
2024/01/02 06:20:21;;;;;;;0.25;0.10;;;9.40;99.90;;;9.52;100.00;98882.81;5233276;28;20137;-48
2024/01/02 06:22:53;;;;;;;0.10;0.10;;;9.50;99.90;;;9.59;100.00;98881.13;5244225;28;20048;-51
2024/01/02 06:25:25;;;;;;;0.10;0.10;;;9.50;99.90;;;9.65;100.00;98894.16;5242058;28;20036;-50
2024/01/02 06:28:00;;;;;;;0.10;0.10;;;9.60;99.90;;;9.67;100.00;98893.34;5243217;28;20553;-50
2024/01/02 06:30:32;;;;;;;0.13;0.13;;;9.60;99.90;;;9.70;100.00;98892.47;5241257;28;20052;-49
2024/01/02 06:33:05;;;;;;;0.10;0.10;;;9.70;99.90;;;9.74;100.00;98895.13;5243364;28;20058;-49
2024/01/02 06:35:38;;;;;;;0.08;0.08;;;9.70;99.90;;;9.77;100.00;98899.47;5244936;28;20057;-48
2024/01/02 06:38:10;;;;;;;0.10;0.10;;;9.80;99.90;;;9.81;100.00;98896.03;5242929;28;20048;-50
2024/01/02 06:40:42;;;;;;;0.10;0.10;;;9.80;99.90;;;9.85;100.00;98892.63;5243310;28;20048;-49
2024/01/02 06:43:16;;;;;;;0.10;0.10;;;9.80;99.90;;;9.91;100.00;98908.28;5241366;28;20045;-49
2024/01/02 06:45:49;;;;;;;0.50;0.50;;;9.90;99.90;;;9.94;100.00;98905.69;5251962;28;20418;-49
2024/01/02 06:48:21;;;;;;;0.10;0.10;;;9.90;99.90;;;9.99;100.00;98898.78;5239202;28;20045;-48
2024/01/02 06:50:53;;;;;;;0.10;0.10;;;9.90;99.90;;;10.03;100.00;98905.72;5243822;28;20053;-49
2024/01/02 06:53:26;;;;;;;0.15;0.15;;;10.00;99.90;;;10.06;100.00;98903.16;5240319;28;20041;-48
2024/01/02 06:55:58;;;;;;;0.55;0.55;;;10.00;99.90;;;10.13;100.00;98903.22;5245035;28;20419;-51
2024/01/02 06:58:32;;;;;;;0.10;0.10;;;10.10;99.90;;;10.16;100.00;98906.69;5238280;28;20103;-51
2024/01/02 07:01:05;;;;;;;0.10;0.10;;;10.10;99.90;;;10.21;100.00;98909.34;5235492;28;20048;-48
2024/01/02 07:03:37;;;;;;;0.25;0.10;;;10.10;99.90;;;10.29;100.00;98921.56;5244415;28;20055;-50
2024/01/02 07:06:09;;;;;;;0.10;0.10;;;10.20;99.90;;;10.29;100.00;98925.91;5243186;28;20059;-48
2024/01/02 07:08:42;;;;;;;0.40;0.40;;;10.20;99.90;;;10.31;100.00;98927.66;5242500;28;20406;-49
2024/01/02 07:11:14;;;;;;;0.10;0.10;;;10.30;99.90;;;10.32;100.00;98933.75;5241901;28;20068;-48
2024/01/02 07:13:48;;;;;;;0.20;0.20;;;10.30;99.90;;;10.33;100.00;98932.88;5245660;28;20068;-48
2024/01/02 07:16:20;;;;;;;0.17;0.17;;;10.30;99.90;;;10.32;100.00;98925.94;5239118;28;20049;-48
2024/01/02 07:18:53;;;;;;;0.10;0.10;;;10.30;99.90;;;10.35;100.00;98935.47;5233852;28;20061;-49
2024/01/02 07:21:25;;;;;;;0.10;0.10;;;10.30;99.90;;;10.39;100.00;98940.72;5244060;28;20056;-50
2024/01/02 07:23:57;;;;;;;0.20;0.20;;;10.30;99.90;;;10.44;100.00;98933.81;5241035;28;20053;-52
2024/01/02 07:26:30;;;;;;;0.50;0.50;;;10.40;99.90;;;10.49;100.00;98920.81;5240201;28;20432;-49
2024/01/02 07:29:04;;;;;;;0.10;0.10;;;10.40;99.90;;;10.54;100.00;98916.50;5229880;28;20044;-48
2024/01/02 07:31:36;;;;;;;0.10;0.10;;;10.50;99.90;;;10.57;100.00;98913.91;5228947;28;20068;-49
2024/01/02 07:34:12;;;;;;;0.10;0.10;;;10.50;99.90;;;10.66;100.00;98915.69;5235637;28;20045;-48
2024/01/02 07:36:44;;;;;;;0.22;0.13;;;10.50;99.90;;;10.68;100.00;98920.03;5243486;28;20060;-48
2024/01/02 07:39:17;;;;;;;0.20;0.20;;;10.60;99.90;;;10.72;100.00;98915.72;5239764;28;20048;-49
2024/01/02 07:41:50;;;;;;;0.10;0.10;;;10.60;99.90;;;10.79;100.00;98922.69;5239861;28;20056;-48
2024/01/02 07:44:23;;;;;;;0.10;0.10;;;10.70;99.90;;;10.80;100.00;98927.91;5241371;28;20064;-49
2024/01/02 07:46:56;;;;;;;0.10;0.10;;;10.70;99.90;;;10.85;100.00;98939.22;5242072;28;20055;-49
2024/01/02 07:49:28;;;;;;;0.28;0.20;;;10.80;99.90;;;10.91;100.00;98941.00;5239806;28;20140;-49
2024/01/02 07:52:01;;;;;;;0.13;0.13;;;10.80;99.90;;;10.91;100.00;98946.22;5241229;28;20052;-51
2024/01/02 07:54:37;;;;;;;3.30;0.30;;;10.80;99.90;;;10.95;100.00;98957.50;5235503;28;20049;-51
2024/01/02 07:57:10;;;;;;;0.20;0.20;;;10.80;99.90;;;10.94;100.00;98946.19;5237749;28;20149;-48
2024/01/02 07:59:44;;;;;;;0.25;0.25;;;10.80;99.90;;;10.97;100.00;98947.97;5241256;28;20052;-48
2024/01/02 08:02:16;;;;;;;0.40;0.40;;;10.90;99.90;;;11.00;100.00;98942.75;5241989;28;20411;-49
2024/01/02 08:04:49;;;;;;;0.60;0.60;;;10.90;99.90;;;11.01;100.00;98950.56;5242474;28;20422;-49
2024/01/02 08:07:21;;;;;;;0.10;0.10;;;10.90;99.90;;;10.99;100.00;98947.09;5240368;28;20044;-52
2024/01/02 08:09:53;;;;;;;0.10;0.10;;;10.90;99.90;;;11.02;100.00;98954.03;5246110;28;20056;-51
2024/01/02 08:12:26;;;;;;;1.65;0.35;;;10.90;99.90;;;10.96;100.00;98967.97;5241501;28;20527;-50
2024/01/02 08:14:59;;;;;;;0.20;0.20;;;10.90;99.90;;;10.95;100.00;98960.97;5237188;28;20052;-49
2024/01/02 08:17:32;;;;;;;0.10;0.10;;;10.90;99.90;;;10.96;100.00;98962.75;5243956;28;20044;-49
2024/01/02 08:20:05;;;;;;;0.10;0.10;;;10.90;99.90;;;10.97;100.00;98959.25;5242381;28;20071;-49
2024/01/02 08:22:38;;;;;;;0.15;0.15;;;10.90;99.90;;;10.98;100.00;98970.56;5231360;28;20049;-52
2024/01/02 08:25:10;;;;;;;0.10;0.10;;;10.90;99.90;;;10.98;100.00;98968.81;5234059;28;20044;-48
2024/01/02 08:27:43;;;;;;;0.10;0.10;;;10.90;99.90;;;10.97;100.00;98972.31;5252663;28;20059;-49
2024/01/02 08:30:18;;;;;;;0.10;0.10;;;10.90;99.90;;;10.98;100.00;98967.97;5242957;28;20052;-48
2024/01/02 08:32:51;;;;;;;0.35;0.20;;;10.90;99.90;;;10.99;100.00;98962.75;5226008;28;20040;-48
2024/01/02 08:35:23;;;;;;;0.10;0.10;;;10.90;99.90;;;10.99;100.00;98973.16;5239545;28;20057;-49
2024/01/02 08:37:55;;;;;;;0.20;0.20;;;11.00;99.90;;;11.01;100.00;98971.44;5240018;28;20129;-48
2024/01/02 08:40:28;;;;;;;0.15;0.15;;;10.90;99.90;;;11.03;100.00;98969.72;5240962;28;20044;-48
2024/01/02 08:43:00;;;;;;;0.10;0.10;;;10.90;99.90;;;11.08;100.00;98978.44;5234445;28;20110;-48
2024/01/02 08:45:34;;;;;;;0.17;0.17;;;11.00;99.90;;;11.13;100.00;98971.47;5237831;28;20072;-50
2024/01/02 08:48:07;;;;;;;0.10;0.10;;;11.00;99.90;;;11.15;100.00;98974.13;5241062;28;20125;-49
2024/01/02 08:50:41;;;;;;;0.10;0.10;;;11.10;99.90;;;11.18;100.00;98981.06;5239019;28;20061;-49
2024/01/02 08:53:14;;;;;;;0.10;0.10;;;11.10;99.90;;;11.21;100.00;98983.66;5239378;28;20052;-49
2024/01/02 08:55:47;;;;;;;0.35;0.20;;;11.10;99.90;;;11.19;100.00;98985.41;5239837;28;20048;-49
2024/01/02 08:58:19;;;;;;;0.40;0.40;;;11.10;99.90;;;11.20;100.00;98981.94;5233892;28;20458;-50
2024/01/02 09:00:53;;;;;;;0.20;0.10;;;11.10;99.90;;;11.23;100.00;98987.19;5232960;28;20051;-49
2024/01/02 09:03:27;;;;;;;0.15;0.15;;;11.10;99.90;;;11.20;100.00;98982.81;5235178;28;20048;-50
2024/01/02 09:06:00;;;;;;;0.20;0.20;;;11.10;99.90;;;11.26;100.00;98992.38;5234877;28;20052;-49
2024/01/02 09:08:32;;;;;;;0.20;0.20;;;11.10;99.90;;;11.31;100.00;98980.25;5240983;28;20052;-49
2024/01/02 09:11:05;;;;;;;0.10;0.10;;;11.20;99.90;;;11.28;100.00;98978.50;5232413;28;20511;-49
2024/01/02 09:13:37;;;;;;;0.10;0.10;;;11.20;99.90;;;11.30;100.00;98974.16;5229794;28;20495;-50
2024/01/02 09:16:11;;;;;;;0.10;0.10;;;11.20;99.90;;;11.33;100.00;98976.75;5234484;28;20060;-50
2024/01/02 09:18:43;;;;;;;0.10;0.10;;;11.30;99.90;;;11.33;100.00;98981.97;5256277;28;20063;-50
2024/01/02 09:21:16;;;;;;;0.68;0.50;;;11.30;99.90;;;11.47;100.00;98976.78;5239027;28;20411;-47
2024/01/02 09:23:48;;;;;;;0.30;0.20;;;11.40;99.90;;;11.51;100.00;98975.94;5235901;28;20036;-50
2024/01/02 09:26:23;;;;;;;0.20;0.20;;;11.40;99.90;;;11.55;100.00;98974.22;5235098;28;20049;-50
2024/01/02 09:28:56;;;;;;;0.10;0.10;;;11.40;99.90;;;11.54;100.00;98983.78;5187549;22;20042;-72
2024/01/02 09:31:30;;;;;;;0.35;0.35;;;11.50;99.90;;;11.52;100.00;98977.69;5143697;28;20502;-71
2024/01/02 09:34:02;;;;;;;0.43;0.20;;;11.50;99.90;;;11.49;100.00;98975.06;5155186;28;20197;-71
2024/01/02 09:36:34;;;;;;;0.20;0.20;;;11.40;99.90;;;11.47;100.00;98984.63;5154034;28;20148;-71
2024/01/02 09:39:09;;;;;;;0.47;0.20;;;11.40;99.90;;;11.46;100.00;98980.28;5151921;28;20046;-72
2024/01/02 09:42:04;;;;;;;0.25;0.22;;;11.40;99.90;;;11.45;100.00;98973.31;5136445;28;20058;-71
2024/01/02 09:44:54;;;;;;;0.13;0.13;;;11.40;99.90;;;11.46;100.00;98980.28;5156724;28;20646;-71
2024/01/02 09:48:12;;;;;;;0.20;0.20;;;11.40;99.90;;;11.51;100.00;98975.94;5171091;28;20112;-71
2024/01/02 09:50:54;;;;;;;0.17;0.10;;;11.40;99.90;;;11.54;100.00;98970.75;5156905;28;20047;-71
2024/01/02 09:54:02;;;;;;;;;;;11.40;99.90;;;11.54;100.00;98973.34;5154308;28;20031;-71
2024/01/02 09:56:46;;;;;;;0.22;0.10;;;11.40;99.90;;;11.54;100.00;98969.84;5152181;28;19925;-64
2024/01/02 09:59:38;;;;;;;0.10;0.10;;;11.50;99.90;;;11.55;100.00;98963.78;5159648;28;20042;-71
2024/01/02 10:02:40;;;;;;;0.13;0.10;;;11.50;99.90;;;11.56;100.00;98961.16;5153829;28;20057;-72
2024/01/02 10:05:28;;;;;;;0.50;0.50;;;11.50;99.90;;;11.58;100.00;98962.03;5153316;28;20415;-71
2024/01/02 10:08:42;;;;;;;0.35;0.35;;;11.50;99.90;;;11.59;100.00;98966.38;5158827;28;20411;-71
2024/01/02 10:11:25;;;;;;;0.13;0.13;;;11.50;99.90;;;11.65;100.00;98961.16;5169369;28;20110;-72
2024/01/02 10:14:02;;;;;;;0.10;0.10;;;11.50;99.90;;;11.71;100.00;98954.22;5157756;28;20039;-72
2024/01/02 10:16:40;;;;;;;0.15;0.13;;;11.60;99.90;;;11.71;100.00;98949.00;5175240;28;20074;-72
2024/01/02 10:19:27;;;;;;;0.20;0.20;;;11.60;99.90;;;11.73;100.00;98952.47;5155932;28;20049;-72
2024/01/02 10:22:12;;;;;;;0.15;0.15;;;11.60;99.90;;;11.71;100.00;98944.66;5159154;28;20471;-72
2024/01/02 10:24:52;;;;;;;0.20;0.20;;;11.60;99.90;;;11.77;100.00;98944.66;5154215;28;20046;-72
2024/01/02 10:27:38;;;;;;;0.20;0.20;;;11.60;99.90;;;11.78;100.00;98935.09;5151541;28;20042;-72
2024/01/02 10:30:13;;;;;;;0.20;0.20;;;11.60;99.90;;;11.81;100.00;98936.00;5153665;28;20118;-72
2024/01/02 10:32:54;;;;;;;0.30;0.10;;;11.70;99.90;;;11.85;100.00;98926.41;5155611;28;20038;-72
2024/01/02 10:35:36;;;;;;;0.20;0.20;;;11.70;99.90;;;11.78;100.00;98927.25;5156523;28;20546;-71
2024/01/02 10:38:17;;;;;;;0.80;0.40;;;11.70;99.90;;;11.82;100.00;98936.88;5158552;28;20708;-71
2024/01/02 10:40:56;;;;;;;0.10;0.10;;;11.70;99.90;;;11.79;100.00;98932.47;5151920;28;20049;-71
2024/01/02 10:43:31;;;;;;;0.10;0.10;;;11.70;99.90;;;11.79;100.00;98934.22;5149859;28;20039;-73
2024/01/02 10:46:11;;;;;;;0.10;0.10;;;11.70;99.90;;;11.79;100.00;98931.59;5146057;28;20050;-73
2024/01/02 10:48:56;;;;;;;0.08;0.08;;;11.70;99.90;;;11.76;100.00;98936.84;5161697;28;20516;-72